MAPA DE AEROPUERTO

INFORMACIÓN METAR y TAF


Deprecated: The each() function is deprecated. This message will be suppressed on further calls in /home/customer/www/clickair-va.com/public_html/VAM/vam/helpers/get_metar.php on line 20
METAR FOR GCLA
ADDS - METARS form results

(1621 UTC 13 January 2023)
Data provider http://aviationweather.gov/metar/data/
 
METAR text: GCLA 131600Z 02011KT 9999 BKN052 22/13 Q1025
Conditions at: GCLA (LA PALMA AIRPORT, ES) observed 1600 UTC 13 January 2023
Temperature: 22.0°C (72°F)
Dewpoint: 13.0°C (55°F) [RH = 57%]
Pressure (altimeter): 30.27 inches Hg (1025.0 mb)
Winds: from the NNE (20 degrees) at 13 MPH (11 knots; 5.7 m/s)
Visibility: 6 or more miles (10+ km)
Ceiling: 5200 feet AGL
Clouds: broken clouds at 5200 feet AGL
Weather: no significant weather observed at this time

METAR text: GCLA 131530Z 03011KT 360V060 9999 SCT050 22/13 Q1025
Conditions at: GCLA (LA PALMA AIRPORT, ES) observed 1530 UTC 13 January 2023
Temperature: 22.0°C (72°F)
Dewpoint: 13.0°C (55°F) [RH = 57%]
Pressure (altimeter): 30.27 inches Hg (1025.0 mb)
Winds: from the NNE (30 degrees) at 13 MPH (11 knots; 5.7 m/s)
Visibility: 6 or more miles (10+ km)
Ceiling: at least 12,000 feet AGL
Clouds: scattered clouds at 5000 feet AGL
Weather: no significant weather observed at this time

Forecast for: GCLA (LA PALMA AIRPORT, ES)
Text: TAF GCLA 131400Z 1315/1415 02010KT 9999 BKN030 TX23/1414Z TN18/1406Z
Forecast period: 1500 UTC 13 January 2023 to 0400 UTC 14 January 2023
Forecast type: FROM: standard forecast or significant change
Winds: from the NNE (20 degrees) at 12 MPH (10 knots; 5.1 m/s)
Visibility: 6 or more miles (10+ km)
Ceiling: 3000 feet AGL
Clouds: broken clouds at 3000 feet AGL
Weather: no significant weather forecast for this period
Text: BECMG 1404/1406 32006KT
Forecast period: 0400 to 1500 UTC 14 January 2023
Forecast type: BECOMING: Conditions expected to become as follows by 0600 UTC 14 January 2023
Winds: from the NW (320 degrees) at 7 MPH (6 knots; 3.1 m/s)
Visibility: 6 or more miles (10+ km)
Ceiling: 3000 feet AGL
Clouds: broken clouds at 3000 feet AGL
Weather: no significant weather forecast for this period